This is the latest recevied weather packets stored in our database for station/object 9M2IBR-1. If no packets are shown the sender has not sent any weather packets the latest 10 day(s).
| Time | Temp. | Humidity | Pressure | Rain* | Wind** | Luminosity | Snow |
|---|---|---|---|---|---|---|---|
| 1777876227 | 27.22° C | 94% | 1009.3 hPa | 1.52 mm | - | 82 W/m² | - |
| 1777875316 | 27.22° C | 93% | 1009.8 hPa | 0.51 mm | - | 49 W/m² | - |
| 1777874128 | 27.78° C | 89% | 1010.3 hPa | 0 mm | - | 66 W/m² | - |
| 1777873842 | 27.78° C | 89% | 1010.4 hPa | 0 mm | - | 80 W/m² | - |
| 1777872629 | 28.33° C | 87% | 1010.4 hPa | 0 mm | - | 120 W/m² | - |
| 1777872326 | 28.33° C | 88% | 1010.4 hPa | 0 mm | - | 132 W/m² | - |
| 1777872024 | 28.33° C | 88% | 1010.5 hPa | 0 mm | - | 136 W/m² | - |
| 1777870816 | 28.33° C | 87% | 1010.8 hPa | 0 mm | - | 162 W/m² | - |
| 1777869321 | 28.33° C | 87% | 1011 hPa | 0 mm | - | 364 W/m² | - |
| 1777866619 | 27.22° C | 95% | 1011.2 hPa | 1.78 mm | - | 567 W/m² | - |
| 1777864519 | 27.22° C | 91% | 1011.2 hPa | 0 mm | - | 40 W/m² | - |
| 1777855540 | 27.22° C | 90% | 1010.2 hPa | 0 mm | - | 199 W/m² | - |
| 1777855218 | 27.22° C | 92% | 1010.1 hPa | 0 mm | - | 207 W/m² | - |
| 1777854629 | 26.67° C | 96% | 1009.8 hPa | 0 mm | - | 134 W/m² | - |
| 1777854327 | 26.11° C | 97% | 1009.7 hPa | 0 mm | - | 115 W/m² | - |
| 1777853728 | 25.56° C | 98% | 1009.3 hPa | 0 mm | - | 94 W/m² | - |
| 1777852550 | 25° C | 99% | 1009.2 hPa | 0 mm | - | 56 W/m² | - |
| 1777851644 | 25° C | 99% | 1009 hPa | 0 mm | - | 32 W/m² | - |
| 1777851322 | 25° C | 99% | 1009.1 hPa | 0 mm | - | 26 W/m² | - |
| 1777850738 | 25° C | 99% | 1009 hPa | 0 mm | - | 14 W/m² | - |
| 1777848317 | 25° C | 99% | 1008.2 hPa | 0 mm | - | 0 W/m² | - |
| 1777846520 | 24.44° C | 99% | 1007.9 hPa | 0 mm | - | 0 W/m² | - |
| 1777845046 | 25° C | 99% | 1007.7 hPa | 0 mm | - | 0 W/m² | - |
| 1777844437 | 25° C | 99% | 1007.7 hPa | 0 mm | - | 0 W/m² | - |
| 1777843817 | 25° C | 99% | 1007.7 hPa | 0 mm | - | 0 W/m² | - |
* Rain latest hour (hover to see other rain measurements)
** Current wind speed in m/s (hover to see current wind gust speed)